createdAt,value
2023-02-11T00:01:24.600Z,-1.46
2023-02-11T00:03:52.962Z,-1.41
2023-02-11T00:06:22.969Z,-1.45
2023-02-11T00:08:51.749Z,-1.34
2023-02-11T00:11:22.050Z,-1.18
2023-02-11T00:13:50.402Z,-1.20
2023-02-11T00:16:21.959Z,-1.62
2023-02-11T00:18:53.084Z,-1.38
2023-02-11T00:21:25.055Z,-1.20
2023-02-11T00:23:54.954Z,-1.02
2023-02-11T00:26:26.835Z,-1.12
2023-02-11T00:28:55.358Z,-0.98
2023-02-11T00:31:24.624Z,-0.93
2023-02-11T00:33:53.499Z,-1.16
2023-02-11T00:36:24.355Z,-1.35
2023-02-11T00:38:54.829Z,-1.17
2023-02-11T00:41:23.731Z,-1.17
2023-02-11T00:43:52.859Z,-1.05
2023-02-11T00:46:21.810Z,-1.05
2023-02-11T00:48:51.807Z,-1.13
2023-02-11T00:51:20.033Z,-1.09
2023-02-11T00:53:49.697Z,-1.27
2023-02-11T00:56:17.800Z,-1.20
2023-02-11T00:58:45.836Z,-1.33
2023-02-11T01:01:15.125Z,-1.00
2023-02-11T01:03:43.217Z,-0.91
2023-02-11T01:06:11.601Z,-1.09
2023-02-11T01:08:40.607Z,-1.19
2023-02-11T01:11:14.930Z,-1.08
2023-02-11T01:13:44.402Z,-1.26
2023-02-11T01:16:13.117Z,-1.19
2023-02-11T01:18:44.723Z,-1.08
2023-02-11T01:21:13.021Z,-1.12
2023-02-11T01:23:41.047Z,-1.00
2023-02-11T01:26:10.813Z,-1.03
2023-02-11T01:28:38.806Z,-0.74
2023-02-11T01:31:07.049Z,-0.70
2023-02-11T01:33:35.827Z,-0.87
2023-02-11T01:36:05.450Z,-0.73
2023-02-11T01:38:33.666Z,-0.53
2023-02-11T01:41:03.799Z,-0.26
2023-02-11T01:43:36.344Z,-0.18
2023-02-11T01:46:14.292Z,-0.12
2023-02-11T01:48:45.739Z,-0.21
2023-02-11T01:51:17.702Z,-0.08
2023-02-11T01:54:05.034Z,-0.09
2023-02-11T01:56:54.188Z,-0.16
2023-02-11T01:59:28.703Z,0.14
2023-02-11T02:02:01.587Z,-0.31
2023-02-11T02:04:34.388Z,-0.47
2023-02-11T02:07:07.983Z,-0.30
2023-02-11T02:09:41.354Z,-0.23
2023-02-11T02:12:09.956Z,-0.16
2023-02-11T02:14:41.534Z,-0.17
2023-02-11T02:17:17.248Z,-0.04
2023-02-11T02:20:14.981Z,-0.02
2023-02-11T02:23:21.243Z,-0.03
2023-02-11T02:26:16.167Z,-0.44
2023-02-11T02:29:20.609Z,-0.24
2023-02-11T02:32:24.484Z,-0.46
2023-02-11T02:34:59.943Z,-0.25
2023-02-11T02:37:35.583Z,0.04
2023-02-11T02:40:10.703Z,-0.11
2023-02-11T02:42:42.093Z,-0.09
2023-02-11T02:45:12.595Z,-0.12
2023-02-11T02:47:41.930Z,0.34
2023-02-11T02:50:11.004Z,-0.04
2023-02-11T02:52:47.932Z,0.04
2023-02-11T02:55:40.123Z,0.43
2023-02-11T02:58:34.684Z,0.55
2023-02-11T03:01:09.008Z,0.66
2023-02-11T03:03:45.254Z,0.65
2023-02-11T03:06:19.649Z,0.72
2023-02-11T03:08:52.732Z,0.69
2023-02-11T03:11:23.158Z,0.72
2023-02-11T03:13:53.109Z,0.65
2023-02-11T03:16:26.551Z,0.48
2023-02-11T03:19:02.549Z,0.42
2023-02-11T03:21:32.332Z,0.35
2023-02-11T03:24:07.720Z,0.39
2023-02-11T03:26:40.032Z,0.51
2023-02-11T03:29:16.916Z,0.33
2023-02-11T03:31:52.585Z,0.79
2023-02-11T03:34:29.519Z,0.41
2023-02-11T03:37:04.436Z,0.61
2023-02-11T03:39:37.574Z,0.93
2023-02-11T03:42:08.123Z,1.20
2023-02-11T03:44:41.550Z,1.11
2023-02-11T03:47:14.630Z,1.06
2023-02-11T03:49:49.470Z,1.14
2023-02-11T03:52:20.459Z,1.24
2023-02-11T03:54:56.491Z,1.26
2023-02-11T03:57:24.483Z,0.85
2023-02-11T03:59:57.834Z,1.22
2023-02-11T04:02:30.503Z,1.26
2023-02-11T04:05:00.256Z,0.85
2023-02-11T04:07:28.642Z,1.00
2023-02-11T04:09:56.579Z,1.15
2023-02-11T04:12:24.711Z,0.92
2023-02-11T04:14:52.900Z,1.27
2023-02-11T04:17:20.780Z,0.33
2023-02-11T04:19:49.216Z,0.43
2023-02-11T04:22:18.389Z,0.55
2023-02-11T04:24:46.454Z,0.53
2023-02-11T04:27:14.857Z,0.93
2023-02-11T04:29:42.832Z,1.07
2023-02-11T04:32:12.212Z,1.12
2023-02-11T04:34:41.130Z,1.20
2023-02-11T04:37:09.541Z,1.33
2023-02-11T04:39:39.014Z,1.31
2023-02-11T04:42:07.806Z,1.53
2023-02-11T04:44:36.123Z,1.58
2023-02-11T04:47:04.571Z,1.31
2023-02-11T04:49:33.268Z,1.51
2023-02-11T04:52:01.328Z,1.36
2023-02-11T04:54:29.913Z,1.20
2023-02-11T04:56:59.961Z,1.55
2023-02-11T04:59:28.150Z,1.45
2023-02-11T05:01:56.389Z,1.43
2023-02-11T05:04:25.260Z,1.58
2023-02-11T05:06:53.362Z,1.61
2023-02-11T05:09:21.521Z,1.57
2023-02-11T05:11:50.940Z,1.56
2023-02-11T05:14:20.801Z,1.60
2023-02-11T05:16:48.943Z,2.02
2023-02-11T05:19:17.691Z,2.33
2023-02-11T05:22:01.380Z,2.27
2023-02-11T05:24:30.961Z,2.08
2023-02-11T05:26:59.051Z,2.34
2023-02-11T05:29:29.213Z,2.17
2023-02-11T05:31:57.725Z,2.08
2023-02-11T05:34:25.797Z,1.93
2023-02-11T05:36:54.036Z,1.97
2023-02-11T05:39:23.075Z,2.40
2023-02-11T05:41:51.234Z,2.41
2023-02-11T05:44:19.301Z,2.53
2023-02-11T05:46:49.741Z,2.57
2023-02-11T05:49:18.313Z,2.51
2023-02-11T05:51:46.494Z,2.32
2023-02-11T05:54:15.386Z,2.10
2023-02-11T05:56:45.014Z,1.89
2023-02-11T05:59:15.646Z,2.43
2023-02-11T06:01:44.050Z,2.33
2023-02-11T06:04:13.619Z,2.52
2023-02-11T06:06:42.351Z,2.21
2023-02-11T06:09:11.403Z,2.28
2023-02-11T06:11:39.591Z,2.43
2023-02-11T06:14:08.427Z,2.53
2023-02-11T06:16:36.657Z,2.55
2023-02-11T06:19:05.222Z,2.26
2023-02-11T06:21:43.546Z,2.35
2023-02-11T06:24:12.729Z,2.18
2023-02-11T06:26:41.456Z,2.42
2023-02-11T06:29:09.896Z,2.41
2023-02-11T06:31:39.842Z,2.79
2023-02-11T06:34:08.674Z,2.71
2023-02-11T06:36:40.675Z,2.69
2023-02-11T06:39:09.628Z,2.86
2023-02-11T06:41:37.925Z,2.83
2023-02-11T06:44:06.394Z,3.02
2023-02-11T06:46:35.414Z,3.00
2023-02-11T06:49:03.645Z,2.92
2023-02-11T06:51:31.709Z,3.20
2023-02-11T06:54:01.583Z,3.23
2023-02-11T06:56:30.461Z,3.13
2023-02-11T06:58:59.293Z,2.92
2023-02-11T07:01:29.191Z,3.16
2023-02-11T07:03:57.678Z,3.25
2023-02-11T07:06:28.516Z,3.22
2023-02-11T07:08:57.229Z,3.30
2023-02-11T07:11:29.122Z,3.23
2023-02-11T07:14:01.713Z,3.04
2023-02-11T07:16:30.381Z,2.71
2023-02-11T07:18:58.849Z,3.48
2023-02-11T07:21:27.291Z,3.54
2023-02-11T07:23:55.917Z,3.67
2023-02-11T07:26:25.841Z,3.89
2023-02-11T07:28:56.511Z,3.50
2023-02-11T07:31:27.282Z,3.95
2023-02-11T07:33:57.802Z,4.04
2023-02-11T07:36:26.041Z,4.16
2023-02-11T07:38:54.241Z,3.77
2023-02-11T07:41:24.562Z,3.51
2023-02-11T07:43:52.759Z,3.73
2023-02-11T07:46:25.170Z,4.42
2023-02-11T07:48:53.710Z,3.85
2023-02-11T07:51:24.330Z,4.50
2023-02-11T07:53:53.917Z,4.57
2023-02-11T07:56:23.264Z,4.38
2023-02-11T07:58:52.005Z,3.78
2023-02-11T08:01:25.816Z,4.19
2023-02-11T08:03:54.599Z,4.18
2023-02-11T08:06:24.783Z,3.93
2023-02-11T08:08:53.728Z,4.09
2023-02-11T08:11:24.055Z,4.13
2023-02-11T08:13:52.478Z,4.30
2023-02-11T08:16:24.749Z,4.28
2023-02-11T08:18:55.206Z,4.10
2023-02-11T08:21:23.932Z,4.05
2023-02-11T08:23:52.844Z,3.82
2023-02-11T08:26:22.991Z,4.35
2023-02-11T08:28:52.841Z,4.60
2023-02-11T08:31:26.151Z,4.84
2023-02-11T08:33:57.967Z,4.22
2023-02-11T08:36:31.732Z,4.50
2023-02-11T08:39:17.653Z,5.17
2023-02-11T08:41:49.017Z,5.15
2023-02-11T08:44:17.501Z,5.48
2023-02-11T08:46:47.850Z,5.16
2023-02-11T08:49:16.822Z,5.35
2023-02-11T08:51:45.940Z,5.66
2023-02-11T08:54:14.592Z,5.80
2023-02-11T08:56:43.266Z,6.06
2023-02-11T08:59:14.977Z,6.13
2023-02-11T09:01:44.552Z,6.19
2023-02-11T09:04:14.680Z,6.03
2023-02-11T09:06:43.427Z,5.85
2023-02-11T09:09:14.075Z,6.03
2023-02-11T09:11:44.084Z,6.54
2023-02-11T09:14:20.043Z,7.04
2023-02-11T09:16:49.003Z,6.35
2023-02-11T09:19:20.229Z,6.63
2023-02-11T09:21:48.867Z,7.08
2023-02-11T09:24:17.642Z,7.14
2023-02-11T09:26:46.171Z,7.32
2023-02-11T09:29:14.756Z,7.04
2023-02-11T09:31:43.470Z,6.89
2023-02-11T09:34:12.748Z,7.08
2023-02-11T09:36:43.245Z,6.87
2023-02-11T09:39:14.523Z,6.41
2023-02-11T09:42:12.514Z,6.94
2023-02-11T09:44:40.920Z,7.08
2023-02-11T09:47:24.797Z,7.60
2023-02-11T09:49:58.453Z,7.61
2023-02-11T09:52:37.565Z,7.90
2023-02-11T09:55:12.623Z,7.19
2023-02-11T09:57:42.865Z,7.42
2023-02-11T10:00:20.309Z,7.74
2023-02-11T10:03:07.121Z,7.63
2023-02-11T10:05:49.442Z,7.41
2023-02-11T10:08:28.042Z,7.92
2023-02-11T10:11:02.409Z,7.63
2023-02-11T10:13:47.385Z,7.77
2023-02-11T10:16:29.822Z,7.50
2023-02-11T10:19:14.438Z,7.66
2023-02-11T10:21:52.886Z,7.42
2023-02-11T10:24:23.516Z,8.02
2023-02-11T10:26:53.628Z,7.87
2023-02-11T10:29:36.746Z,7.40
2023-02-11T10:32:08.820Z,7.50
2023-02-11T10:34:42.805Z,8.43
2023-02-11T10:37:14.367Z,8.23
2023-02-11T10:39:44.340Z,8.03
2023-02-11T10:42:15.513Z,8.38
2023-02-11T10:44:51.985Z,8.11
2023-02-11T10:47:25.369Z,7.30
2023-02-11T10:49:54.161Z,7.36
2023-02-11T10:52:25.489Z,7.58
2023-02-11T10:55:04.949Z,8.53
2023-02-11T10:57:37.194Z,8.51
2023-02-11T11:00:24.558Z,8.26
2023-02-11T11:02:58.121Z,7.99
2023-02-11T11:05:33.160Z,7.73
2023-02-11T11:08:03.667Z,7.57
2023-02-11T11:10:44.779Z,7.20
2023-02-11T11:13:31.266Z,8.25
2023-02-11T11:16:20.329Z,8.01
2023-02-11T11:18:50.092Z,7.78
2023-02-11T11:21:23.244Z,7.64
2023-02-11T11:23:55.196Z,7.42
2023-02-11T11:26:27.675Z,7.91
2023-02-11T11:29:00.163Z,7.62
2023-02-11T11:31:33.648Z,8.11
2023-02-11T11:34:08.205Z,7.83
2023-02-11T11:36:40.156Z,7.70
2023-02-11T11:39:21.635Z,7.82
2023-02-11T11:41:55.186Z,7.82
2023-02-11T11:44:35.725Z,7.60
2023-02-11T11:47:21.524Z,7.93
2023-02-11T11:49:57.199Z,7.67
2023-02-11T11:52:38.503Z,7.62
2023-02-11T11:55:17.328Z,7.98
2023-02-11T11:57:47.319Z,8.02
2023-02-11T12:00:20.737Z,8.33
2023-02-11T12:03:08.743Z,8.03
2023-02-11T12:05:44.044Z,7.92
2023-02-11T12:08:20.449Z,7.27
2023-02-11T12:10:58.526Z,7.87
2023-02-11T12:13:42.625Z,7.57
2023-02-11T12:16:26.920Z,7.65
2023-02-11T12:19:25.036Z,7.92
2023-02-11T12:22:02.981Z,7.74
2023-02-11T12:24:53.751Z,8.00
2023-02-11T12:27:38.796Z,8.12
2023-02-11T12:30:22.763Z,7.87
2023-02-11T12:33:00.357Z,7.74
2023-02-11T12:35:38.956Z,7.95
2023-02-11T12:38:29.930Z,8.32
2023-02-11T12:41:11.379Z,8.25
2023-02-11T12:43:41.076Z,8.27
2023-02-11T12:46:39.677Z,8.01
2023-02-11T12:49:44.069Z,8.57
2023-02-11T12:52:28.815Z,7.99
2023-02-11T12:55:02.636Z,8.53
2023-02-11T12:57:34.109Z,8.10
2023-02-11T13:00:08.420Z,8.79
2023-02-11T13:02:48.751Z,8.43
2023-02-11T13:05:26.216Z,8.43
2023-02-11T13:07:59.044Z,8.28
2023-02-11T13:10:32.924Z,8.38
2023-02-11T13:13:19.133Z,8.13
2023-02-11T13:15:51.924Z,8.36
2023-02-11T13:18:51.262Z,8.33
2023-02-11T13:21:43.271Z,8.25
2023-02-11T13:24:21.557Z,8.51
2023-02-11T13:26:59.246Z,8.45
2023-02-11T13:29:33.740Z,8.26
2023-02-11T13:32:09.036Z,8.65
2023-02-11T13:35:00.717Z,8.37
2023-02-11T13:37:35.931Z,8.30
2023-02-11T13:40:07.794Z,8.60
2023-02-11T13:42:51.075Z,8.44
2023-02-11T13:45:25.332Z,8.36
2023-02-11T13:47:58.353Z,8.03
2023-02-11T13:50:30.862Z,8.53
2023-02-11T13:53:01.727Z,8.34
2023-02-11T13:55:30.474Z,8.28
2023-02-11T13:58:40.133Z,8.34
2023-02-11T14:01:09.048Z,8.68
2023-02-11T14:03:58.006Z,8.65
2023-02-11T14:06:46.973Z,8.72
2023-02-11T14:09:42.362Z,8.37
2023-02-11T14:12:33.454Z,7.87
2023-02-11T14:15:21.626Z,8.69
2023-02-11T14:17:50.084Z,8.84
2023-02-11T14:20:41.100Z,8.16
2023-02-11T14:23:24.196Z,8.80
2023-02-11T14:26:22.255Z,8.88
2023-02-11T14:28:55.244Z,8.62
2023-02-11T14:31:28.460Z,8.29
2023-02-11T14:34:17.128Z,8.24
2023-02-11T14:37:00.819Z,8.44
2023-02-11T14:39:45.822Z,7.67
2023-02-11T14:42:21.366Z,7.95
2023-02-11T14:44:52.135Z,8.09
2023-02-11T14:47:24.511Z,8.11
2023-02-11T14:49:52.797Z,8.07
2023-02-11T14:52:29.376Z,7.95
2023-02-11T14:55:08.150Z,7.84
2023-02-11T14:57:38.009Z,8.14
2023-02-11T15:00:15.756Z,8.24
2023-02-11T15:02:46.066Z,8.46
2023-02-11T15:05:22.791Z,7.97
2023-02-11T15:07:54.240Z,8.24
2023-02-11T15:10:32.133Z,8.03
2023-02-11T15:13:02.766Z,8.22
2023-02-11T15:15:32.041Z,8.08
2023-02-11T15:18:05.095Z,8.06
2023-02-11T15:20:35.900Z,8.18
2023-02-11T15:23:07.609Z,8.23
2023-02-11T15:25:44.250Z,7.72
2023-02-11T15:28:23.602Z,7.58
2023-02-11T15:30:59.575Z,7.68
2023-02-11T15:33:30.722Z,7.26
2023-02-11T15:35:59.748Z,7.75
2023-02-11T15:38:27.609Z,7.57
2023-02-11T15:41:01.162Z,7.56
2023-02-11T15:43:42.582Z,7.67
2023-02-11T15:46:13.181Z,7.37
2023-02-11T15:48:44.980Z,7.62
2023-02-11T15:51:22.527Z,7.57
2023-02-11T15:53:56.827Z,7.72
2023-02-11T15:56:33.327Z,7.73
2023-02-11T15:59:10.655Z,7.66
2023-02-11T16:01:40.656Z,7.93
2023-02-11T16:04:08.939Z,7.75
2023-02-11T16:06:41.126Z,7.66
2023-02-11T16:09:32.262Z,7.76
2023-02-11T16:12:07.967Z,7.52
2023-02-11T16:14:39.192Z,7.34
2023-02-11T16:17:11.471Z,7.29
2023-02-11T16:19:46.716Z,6.99
2023-02-11T16:22:19.655Z,7.52
2023-02-11T16:25:06.296Z,7.58
2023-02-11T16:28:28.294Z,7.41
2023-02-11T16:31:01.474Z,7.59
2023-02-11T16:33:30.723Z,7.46
2023-02-11T16:36:02.089Z,7.40
2023-02-11T16:38:31.761Z,7.52
2023-02-11T16:40:59.661Z,7.71
2023-02-11T16:43:27.495Z,7.61
2023-02-11T16:45:55.963Z,7.48
2023-02-11T16:48:25.498Z,7.20
2023-02-11T16:50:53.791Z,7.12
2023-02-11T16:53:25.210Z,7.43
2023-02-11T16:55:54.173Z,7.17
2023-02-11T16:58:22.143Z,7.30
2023-02-11T17:00:51.489Z,7.18
2023-02-11T17:03:24.246Z,7.39
2023-02-11T17:05:55.917Z,7.39
2023-02-11T17:08:23.905Z,7.35
2023-02-11T17:10:52.185Z,7.25
2023-02-11T17:13:20.705Z,7.43
2023-02-11T17:15:48.574Z,7.68
2023-02-11T17:18:16.407Z,7.49
2023-02-11T17:20:44.650Z,7.58
2023-02-11T17:23:13.927Z,7.49
2023-02-11T17:25:41.995Z,7.49
2023-02-11T17:28:12.482Z,7.55
2023-02-11T17:30:43.558Z,7.14
2023-02-11T17:33:11.996Z,6.85
2023-02-11T17:35:42.206Z,7.32
2023-02-11T17:38:10.122Z,6.92
2023-02-11T17:40:39.721Z,7.28
2023-02-11T17:43:08.184Z,7.33
2023-02-11T17:45:36.409Z,7.27
2023-02-11T17:48:04.992Z,7.13
2023-02-11T17:50:36.494Z,7.05
2023-02-11T17:53:05.166Z,7.08
2023-02-11T17:55:34.831Z,7.11
2023-02-11T17:58:04.564Z,7.26
2023-02-11T18:00:32.664Z,7.18
2023-02-11T18:03:02.937Z,7.32
2023-02-11T18:05:35.897Z,7.50
2023-02-11T18:08:04.691Z,6.98
2023-02-11T18:10:33.494Z,6.84
2023-02-11T18:13:02.227Z,7.21
2023-02-11T18:15:31.481Z,7.33
2023-02-11T18:17:59.354Z,7.24
2023-02-11T18:20:27.746Z,7.23
2023-02-11T18:22:55.664Z,7.43
2023-02-11T18:25:23.719Z,7.56
2023-02-11T18:27:52.151Z,7.40
2023-02-11T18:30:21.109Z,7.49
2023-02-11T18:32:54.931Z,7.34
2023-02-11T18:35:23.552Z,6.89
2023-02-11T18:37:53.499Z,7.07
2023-02-11T18:40:22.178Z,6.86
2023-02-11T18:42:50.174Z,6.52
2023-02-11T18:45:18.308Z,6.92
2023-02-11T18:47:46.935Z,6.93
2023-02-11T18:50:16.846Z,7.17
2023-02-11T18:52:45.020Z,7.15
2023-02-11T18:55:13.439Z,7.07
2023-02-11T18:57:42.956Z,7.16
2023-02-11T19:00:12.337Z,6.69
2023-02-11T19:02:41.078Z,6.95
2023-02-11T19:05:09.692Z,7.01
2023-02-11T19:07:39.122Z,7.15
2023-02-11T19:10:09.130Z,6.87
2023-02-11T19:12:39.177Z,6.83
2023-02-11T19:15:08.718Z,7.15
2023-02-11T19:17:37.190Z,7.28
2023-02-11T19:20:06.598Z,6.80
2023-02-11T19:22:34.765Z,6.82
2023-02-11T19:25:04.385Z,6.98
2023-02-11T19:27:32.728Z,7.16
2023-02-11T19:30:00.916Z,7.17
2023-02-11T19:32:29.522Z,6.94
2023-02-11T19:34:57.896Z,7.27
2023-02-11T19:37:26.035Z,7.09
2023-02-11T19:39:54.577Z,7.16
2023-02-11T19:42:27.139Z,7.08
2023-02-11T19:44:55.906Z,6.85
2023-02-11T19:47:27.662Z,6.81
2023-02-11T19:49:56.393Z,7.19
2023-02-11T19:52:24.951Z,6.60
2023-02-11T19:54:53.235Z,7.00
2023-02-11T19:57:21.746Z,6.99
2023-02-11T19:59:53.202Z,7.00
2023-02-11T20:02:21.844Z,7.02
2023-02-11T20:04:50.185Z,7.10
2023-02-11T20:07:18.204Z,6.91
2023-02-11T20:09:46.665Z,6.92
2023-02-11T20:12:14.667Z,6.99
2023-02-11T20:14:42.979Z,6.51
2023-02-11T20:17:12.734Z,6.60
2023-02-11T20:19:40.813Z,6.43
2023-02-11T20:22:08.750Z,6.49
2023-02-11T20:24:37.209Z,6.50
2023-02-11T20:27:08.296Z,6.66
2023-02-11T20:29:36.443Z,6.43
2023-02-11T20:32:05.593Z,6.66
2023-02-11T20:34:35.476Z,6.75
2023-02-11T20:37:06.111Z,6.55
2023-02-11T20:39:35.544Z,6.77
2023-02-11T20:42:04.114Z,6.70
2023-02-11T20:44:32.754Z,6.69
2023-02-11T20:47:00.897Z,6.71
2023-02-11T20:49:29.127Z,6.77
2023-02-11T20:51:59.705Z,6.46
2023-02-11T20:54:28.605Z,6.44
2023-02-11T20:56:58.192Z,6.49
2023-02-11T20:59:27.323Z,6.78
2023-02-11T21:01:57.059Z,6.67
2023-02-11T21:04:27.876Z,6.85
2023-02-11T21:06:59.329Z,6.78
2023-02-11T21:09:30.374Z,6.70
2023-02-11T21:11:58.829Z,6.54
2023-02-11T21:14:27.859Z,6.41
2023-02-11T21:16:56.936Z,6.49
2023-02-11T21:19:25.184Z,6.35
2023-02-11T21:21:54.831Z,6.35
2023-02-11T21:24:24.821Z,6.35
2023-02-11T21:26:52.746Z,6.37
2023-02-11T21:29:20.916Z,6.36
2023-02-11T21:31:50.236Z,6.14
2023-02-11T21:34:20.161Z,6.19
2023-02-11T21:36:51.556Z,6.24
2023-02-11T21:39:20.446Z,6.37
2023-02-11T21:41:49.904Z,6.22
2023-02-11T21:44:18.474Z,6.07
2023-02-11T21:46:46.772Z,6.21
2023-02-11T21:49:14.654Z,6.03
2023-02-11T21:51:43.239Z,6.42
2023-02-11T21:54:12.741Z,6.24
2023-02-11T21:56:41.018Z,6.30
2023-02-11T21:59:14.321Z,6.36
2023-02-11T22:01:42.464Z,6.46
2023-02-11T22:04:11.341Z,6.57
2023-02-11T22:06:40.424Z,6.62
2023-02-11T22:09:11.500Z,6.47
2023-02-11T22:11:39.475Z,6.40
2023-02-11T22:14:08.059Z,6.73
2023-02-11T22:16:37.458Z,6.48
2023-02-11T22:19:07.892Z,6.57
2023-02-11T22:21:35.781Z,6.53
2023-02-11T22:24:03.848Z,6.59
2023-02-11T22:26:32.197Z,6.66
2023-02-11T22:29:00.279Z,6.62
2023-02-11T22:31:30.089Z,6.37
2023-02-11T22:34:00.767Z,6.43
2023-02-11T22:36:30.400Z,6.52
2023-02-11T22:39:02.223Z,6.46
2023-02-11T22:41:30.391Z,6.31
2023-02-11T22:43:58.844Z,6.41
2023-02-11T22:46:27.831Z,6.31
2023-02-11T22:48:55.975Z,6.27
2023-02-11T22:51:27.231Z,6.18
2023-02-11T22:53:58.007Z,6.32
2023-02-11T22:56:27.088Z,6.35
2023-02-11T22:58:58.853Z,6.47
2023-02-11T23:01:27.605Z,6.45
2023-02-11T23:03:56.246Z,6.26
2023-02-11T23:06:25.565Z,6.12
2023-02-11T23:08:53.909Z,6.24
2023-02-11T23:11:26.161Z,6.43
2023-02-11T23:13:55.221Z,6.46
2023-02-11T23:16:25.562Z,6.28
2023-02-11T23:18:53.958Z,6.34
2023-02-11T23:21:24.726Z,6.16
2023-02-11T23:23:57.939Z,6.55
2023-02-11T23:26:27.106Z,6.23
2023-02-11T23:28:55.404Z,6.37
2023-02-11T23:31:27.778Z,6.63
2023-02-11T23:33:56.188Z,6.44
2023-02-11T23:36:24.579Z,6.44
2023-02-11T23:38:53.561Z,6.56
2023-02-11T23:41:23.922Z,6.87
2023-02-11T23:43:53.265Z,6.61
2023-02-11T23:46:23.373Z,6.63
2023-02-11T23:48:52.728Z,6.84
2023-02-11T23:51:20.927Z,6.58
2023-02-11T23:53:50.147Z,6.46
2023-02-11T23:56:20.780Z,6.38
2023-02-11T23:58:53.789Z,6.34
